createdAt,value
2017-12-16T00:00:02.882Z,4.00
2017-12-16T00:01:02.894Z,8.00
2017-12-16T00:02:02.868Z,4.00
2017-12-16T00:03:02.862Z,4.00
2017-12-16T00:04:02.854Z,4.00
2017-12-16T00:05:02.854Z,4.00
2017-12-16T00:06:02.889Z,4.00
2017-12-16T00:07:02.836Z,4.00
2017-12-16T00:08:02.843Z,4.00
2017-12-16T00:09:02.826Z,4.00
2017-12-16T00:10:02.855Z,8.00
2017-12-16T00:11:02.815Z,4.00
2017-12-16T00:12:02.802Z,4.00
2017-12-16T00:13:02.797Z,8.00
2017-12-16T00:14:02.792Z,4.00
2017-12-16T00:15:02.785Z,4.00
2017-12-16T00:16:02.777Z,4.00
2017-12-16T00:17:04.351Z,4.00
2017-12-16T00:18:02.920Z,4.00
2017-12-16T00:19:02.857Z,8.00
2017-12-16T00:20:02.780Z,8.00
2017-12-16T00:21:02.746Z,8.00
2017-12-16T00:22:02.820Z,4.00
2017-12-16T00:23:02.765Z,4.00
2017-12-16T00:24:02.729Z,4.00
2017-12-16T00:25:02.724Z,4.00
2017-12-16T00:26:02.711Z,4.00
2017-12-16T00:27:02.705Z,4.00
2017-12-16T00:28:02.806Z,4.00
2017-12-16T00:29:02.690Z,8.00
2017-12-16T00:30:02.686Z,4.00
2017-12-16T00:31:02.676Z,4.00
2017-12-16T00:32:02.670Z,4.00
2017-12-16T00:33:02.663Z,8.00
2017-12-16T00:34:02.674Z,12.00
2017-12-16T00:35:02.667Z,4.00
2017-12-16T00:36:02.696Z,4.00
2017-12-16T00:37:02.726Z,8.00
2017-12-16T00:38:02.712Z,8.00
2017-12-16T00:39:02.686Z,8.00
2017-12-16T00:40:02.617Z,8.00
2017-12-16T00:41:02.610Z,4.00
2017-12-16T00:42:02.607Z,8.00
2017-12-16T00:43:02.597Z,8.00
2017-12-16T00:44:02.624Z,4.00
2017-12-16T00:45:02.583Z,8.00
2017-12-16T00:46:02.577Z,4.00
2017-12-16T00:47:02.605Z,4.00
2017-12-16T00:48:02.563Z,4.00
2017-12-16T00:49:02.559Z,4.00
2017-12-16T00:50:02.552Z,8.00
2017-12-16T00:51:02.543Z,4.00
2017-12-16T00:52:02.539Z,4.00
2017-12-16T00:53:02.536Z,4.00
2017-12-16T00:54:02.524Z,4.00
2017-12-16T00:55:02.556Z,8.00
2017-12-16T00:56:02.509Z,4.00
2017-12-16T00:57:02.513Z,4.00
2017-12-16T00:58:02.496Z,4.00
2017-12-16T00:59:02.533Z,8.00
2017-12-16T01:00:02.484Z,8.00
2017-12-16T01:01:02.482Z,4.00
2017-12-16T01:02:02.468Z,8.00
2017-12-16T01:03:02.465Z,8.00
2017-12-16T01:04:02.456Z,8.00
2017-12-16T01:05:02.451Z,8.00
2017-12-16T01:06:02.444Z,4.00
2017-12-16T01:07:02.434Z,4.00
2017-12-16T01:08:02.429Z,4.00
2017-12-16T01:09:02.422Z,4.00
2017-12-16T01:10:02.418Z,4.00
2017-12-16T01:11:02.409Z,8.00
2017-12-16T01:12:02.403Z,8.00
2017-12-16T01:13:02.397Z,8.00
2017-12-16T01:14:02.395Z,8.00
2017-12-16T01:15:02.383Z,8.00
2017-12-16T01:16:02.403Z,4.00
2017-12-16T01:17:02.371Z,8.00
2017-12-16T01:18:02.364Z,8.00
2017-12-16T01:19:02.355Z,4.00
2017-12-16T01:20:02.351Z,4.00
2017-12-16T01:21:02.341Z,4.00
2017-12-16T01:22:02.337Z,8.00
2017-12-16T01:23:02.329Z,8.00
2017-12-16T01:24:02.321Z,8.00
2017-12-16T01:25:02.315Z,8.00
2017-12-16T01:26:02.308Z,4.00
2017-12-16T01:27:02.301Z,4.00
2017-12-16T01:28:02.296Z,8.00
2017-12-16T01:29:02.288Z,4.00
2017-12-16T01:30:02.286Z,4.00
2017-12-16T01:31:02.275Z,8.00
2017-12-16T01:32:02.268Z,8.00
2017-12-16T01:33:02.272Z,8.00
2017-12-16T01:34:02.255Z,8.00
2017-12-16T01:35:03.519Z,4.00
2017-12-16T01:36:02.242Z,4.00
2017-12-16T01:37:02.235Z,8.00
2017-12-16T01:38:02.235Z,8.00
2017-12-16T01:39:02.221Z,4.00
2017-12-16T01:40:02.214Z,8.00
2017-12-16T01:41:02.223Z,8.00
2017-12-16T01:42:02.201Z,4.00
2017-12-16T01:43:02.785Z,8.00
2017-12-16T01:44:02.187Z,4.00
2017-12-16T01:45:02.182Z,8.00
2017-12-16T01:46:02.176Z,8.00
2017-12-16T01:47:02.167Z,4.00
2017-12-16T01:48:02.162Z,8.00
2017-12-16T01:49:02.153Z,4.00
2017-12-16T01:50:02.150Z,4.00
2017-12-16T01:51:02.139Z,4.00
2017-12-16T01:52:02.149Z,4.00
2017-12-16T01:53:02.129Z,4.00
2017-12-16T01:54:02.131Z,4.00
2017-12-16T01:55:02.660Z,4.00
2017-12-16T01:56:02.111Z,4.00
2017-12-16T01:57:02.100Z,4.00
2017-12-16T01:58:02.113Z,4.00
2017-12-16T01:59:02.086Z,8.00
2017-12-16T02:00:02.081Z,8.00
2017-12-16T02:01:02.074Z,8.00
2017-12-16T02:02:02.068Z,4.00
2017-12-16T02:03:02.061Z,8.00
2017-12-16T02:04:02.074Z,8.00
2017-12-16T02:05:02.047Z,4.00
2017-12-16T02:06:02.041Z,4.00
2017-12-16T02:07:02.032Z,4.00
2017-12-16T02:08:02.025Z,4.00
2017-12-16T02:09:02.023Z,8.00
2017-12-16T02:10:02.027Z,4.00
2017-12-16T02:11:02.005Z,8.00
2017-12-16T02:12:01.997Z,4.00
2017-12-16T02:13:01.994Z,4.00
2017-12-16T02:14:01.988Z,4.00
2017-12-16T02:15:01.982Z,8.00
2017-12-16T02:16:01.973Z,8.00
2017-12-16T02:17:01.966Z,8.00
2017-12-16T02:18:01.966Z,4.00
2017-12-16T02:19:01.955Z,8.00
2017-12-16T02:20:01.945Z,8.00
2017-12-16T02:21:01.940Z,8.00
2017-12-16T02:22:01.936Z,8.00
2017-12-16T02:23:01.924Z,8.00
2017-12-16T02:24:01.926Z,8.00
2017-12-16T02:25:01.911Z,4.00
2017-12-16T02:26:02.279Z,8.00
2017-12-16T02:27:01.896Z,4.00
2017-12-16T02:28:01.897Z,4.00
2017-12-16T02:29:01.884Z,8.00
2017-12-16T02:30:01.879Z,8.00
2017-12-16T02:31:01.870Z,4.00
2017-12-16T02:32:01.870Z,4.00
2017-12-16T02:33:01.885Z,8.00
2017-12-16T02:34:01.856Z,4.00
2017-12-16T02:35:01.843Z,4.00
2017-12-16T02:36:01.836Z,8.00
2017-12-16T02:37:01.858Z,8.00
2017-12-16T02:38:01.830Z,4.00
2017-12-16T02:39:01.814Z,4.00
2017-12-16T02:40:01.819Z,8.00
2017-12-16T02:41:01.802Z,8.00
2017-12-16T02:42:01.795Z,8.00
2017-12-16T02:43:01.788Z,8.00
2017-12-16T02:44:01.781Z,8.00
2017-12-16T02:45:01.805Z,8.00
2017-12-16T02:46:01.768Z,8.00
2017-12-16T02:47:01.762Z,4.00
2017-12-16T02:48:01.756Z,4.00
2017-12-16T02:49:01.748Z,4.00
2017-12-16T02:50:01.745Z,8.00
2017-12-16T02:51:01.734Z,8.00
2017-12-16T02:52:01.728Z,4.00
2017-12-16T02:53:01.721Z,4.00
2017-12-16T02:54:01.716Z,4.00
2017-12-16T02:55:01.729Z,8.00
2017-12-16T02:56:01.745Z,4.00
2017-12-16T02:57:01.697Z,8.00
2017-12-16T02:58:01.725Z,4.00
2017-12-16T02:59:01.680Z,8.00
2017-12-16T03:00:01.675Z,4.00
2017-12-16T03:01:01.666Z,8.00
2017-12-16T03:02:01.666Z,4.00
2017-12-16T03:03:01.655Z,8.00
2017-12-16T03:04:01.649Z,8.00
2017-12-16T03:05:01.639Z,4.00
2017-12-16T03:06:01.636Z,4.00
2017-12-16T03:07:01.631Z,4.00
2017-12-16T03:08:01.620Z,8.00
2017-12-16T03:09:01.725Z,4.00
2017-12-16T03:10:01.610Z,4.00
2017-12-16T03:11:01.601Z,8.00
2017-12-16T03:12:03.023Z,4.00
2017-12-16T03:13:02.219Z,4.00
2017-12-16T03:14:01.579Z,4.00
2017-12-16T03:15:01.572Z,8.00
2017-12-16T03:16:01.572Z,4.00
2017-12-16T03:17:01.570Z,8.00
2017-12-16T03:18:01.553Z,4.00
2017-12-16T03:19:01.546Z,8.00
2017-12-16T03:20:01.542Z,8.00
2017-12-16T03:21:01.759Z,4.00
2017-12-16T03:22:01.529Z,8.00
2017-12-16T03:23:01.521Z,4.00
2017-12-16T03:24:01.577Z,8.00
2017-12-16T03:25:01.517Z,4.00
2017-12-16T03:26:01.536Z,8.00
2017-12-16T03:27:01.497Z,4.00
2017-12-16T03:28:01.487Z,8.00
2017-12-16T03:29:01.485Z,4.00
2017-12-16T03:30:01.582Z,8.00
2017-12-16T03:31:01.470Z,4.00
2017-12-16T03:32:01.461Z,8.00
2017-12-16T03:33:01.457Z,8.00
2017-12-16T03:34:01.448Z,4.00
2017-12-16T03:35:01.451Z,4.00
2017-12-16T03:36:01.436Z,4.00
2017-12-16T03:37:01.428Z,4.00
2017-12-16T03:38:01.421Z,4.00
2017-12-16T03:39:01.417Z,4.00
2017-12-16T03:40:01.413Z,4.00
2017-12-16T03:41:01.402Z,8.00
2017-12-16T03:42:01.440Z,4.00
2017-12-16T03:43:01.389Z,4.00
2017-12-16T03:44:01.394Z,4.00
2017-12-16T03:45:01.377Z,4.00
2017-12-16T03:46:01.369Z,4.00
2017-12-16T03:47:01.361Z,4.00
2017-12-16T03:48:01.354Z,4.00
2017-12-16T03:49:02.479Z,4.00
2017-12-16T03:50:01.381Z,4.00
2017-12-16T03:51:01.336Z,4.00
2017-12-16T03:52:01.326Z,4.00
2017-12-16T03:53:01.321Z,4.00
2017-12-16T03:54:01.316Z,4.00
2017-12-16T03:55:01.307Z,4.00
2017-12-16T03:56:01.300Z,4.00
2017-12-16T03:57:01.296Z,4.00
2017-12-16T03:58:01.289Z,4.00
2017-12-16T03:59:01.283Z,4.00
2017-12-16T04:00:01.272Z,4.00
2017-12-16T04:01:01.267Z,4.00
2017-12-16T04:02:01.262Z,4.00
2017-12-16T04:03:01.253Z,4.00
2017-12-16T04:04:01.251Z,4.00
2017-12-16T04:05:01.245Z,4.00
2017-12-16T04:06:01.232Z,4.00
2017-12-16T04:07:01.229Z,4.00
2017-12-16T04:08:01.220Z,4.00
2017-12-16T04:09:01.216Z,4.00
2017-12-16T04:10:01.207Z,4.00
2017-12-16T04:11:01.200Z,4.00
2017-12-16T04:12:01.192Z,4.00
2017-12-16T04:13:01.186Z,4.00
2017-12-16T04:14:01.179Z,4.00
2017-12-16T04:15:01.173Z,4.00
2017-12-16T04:16:01.168Z,4.00
2017-12-16T04:17:01.159Z,4.00
2017-12-16T04:18:01.153Z,4.00
2017-12-16T04:19:01.147Z,4.00
2017-12-16T04:20:01.144Z,4.00
2017-12-16T04:21:01.133Z,4.00
2017-12-16T04:22:01.127Z,4.00
2017-12-16T04:23:01.120Z,4.00
2017-12-16T04:24:01.113Z,4.00
2017-12-16T04:25:01.104Z,4.00
2017-12-16T04:26:01.101Z,4.00
2017-12-16T04:27:01.093Z,4.00
2017-12-16T04:28:01.090Z,4.00
2017-12-16T04:29:01.080Z,4.00
2017-12-16T04:30:01.083Z,8.00
2017-12-16T04:31:01.067Z,4.00
2017-12-16T04:32:01.060Z,4.00
2017-12-16T04:33:01.052Z,4.00
2017-12-16T04:34:01.048Z,4.00
2017-12-16T04:35:01.040Z,4.00
2017-12-16T04:36:01.041Z,4.00
2017-12-16T04:37:01.025Z,4.00
2017-12-16T04:38:01.018Z,4.00
2017-12-16T04:39:01.011Z,4.00
2017-12-16T04:40:01.007Z,4.00
2017-12-16T04:41:00.997Z,4.00
2017-12-16T04:42:00.993Z,4.00
2017-12-16T04:43:00.985Z,4.00
2017-12-16T04:44:00.982Z,4.00
2017-12-16T04:45:00.980Z,4.00
2017-12-16T04:46:00.967Z,4.00
2017-12-16T04:47:00.958Z,4.00
2017-12-16T04:48:00.949Z,4.00
2017-12-16T04:49:00.945Z,4.00
2017-12-16T04:50:00.939Z,4.00
2017-12-16T04:51:00.930Z,4.00
2017-12-16T04:52:00.930Z,4.00
2017-12-16T04:53:00.918Z,4.00
2017-12-16T04:54:00.915Z,4.00
2017-12-16T04:55:00.907Z,4.00
2017-12-16T04:56:00.897Z,4.00
2017-12-16T04:57:00.888Z,4.00
2017-12-16T04:58:00.884Z,4.00
2017-12-16T04:59:00.876Z,4.00
2017-12-16T05:00:00.878Z,8.00
2017-12-16T05:01:00.866Z,8.00
2017-12-16T05:02:00.858Z,8.00
2017-12-16T05:03:00.847Z,8.00
2017-12-16T05:04:00.843Z,8.00
2017-12-16T05:05:00.837Z,4.00
2017-12-16T05:06:00.835Z,4.00
2017-12-16T05:07:00.827Z,4.00
2017-12-16T05:08:00.816Z,4.00
2017-12-16T05:09:00.808Z,4.00
2017-12-16T05:10:00.802Z,4.00
2017-12-16T05:11:00.794Z,4.00
2017-12-16T05:12:00.790Z,4.00
2017-12-16T05:13:00.780Z,4.00
2017-12-16T05:14:00.778Z,4.00
2017-12-16T05:15:00.767Z,4.00
2017-12-16T05:16:00.759Z,4.00
2017-12-16T05:17:00.754Z,4.00
2017-12-16T05:18:00.746Z,4.00
2017-12-16T05:19:00.739Z,4.00
2017-12-16T05:20:00.733Z,4.00
2017-12-16T05:21:00.726Z,8.00
2017-12-16T05:22:00.719Z,4.00
2017-12-16T05:23:00.711Z,4.00
2017-12-16T05:24:00.705Z,4.00
2017-12-16T05:25:00.744Z,4.00
2017-12-16T05:26:00.691Z,4.00
2017-12-16T05:27:00.684Z,4.00
2017-12-16T05:28:00.678Z,4.00
2017-12-16T05:29:00.670Z,4.00
2017-12-16T05:30:00.663Z,8.00
2017-12-16T05:31:00.656Z,4.00
2017-12-16T05:32:00.649Z,8.00
2017-12-16T05:33:00.642Z,4.00
2017-12-16T05:34:00.642Z,4.00
2017-12-16T05:35:00.629Z,4.00
2017-12-16T05:36:00.622Z,4.00
2017-12-16T05:37:00.619Z,4.00
2017-12-16T05:38:00.614Z,8.00
2017-12-16T05:39:00.602Z,4.00
2017-12-16T05:40:00.596Z,4.00
2017-12-16T05:41:00.586Z,4.00
2017-12-16T05:42:00.582Z,4.00
2017-12-16T05:43:00.573Z,4.00
2017-12-16T05:44:00.569Z,4.00
2017-12-16T05:45:00.562Z,4.00
2017-12-16T05:46:00.555Z,4.00
2017-12-16T05:47:00.546Z,4.00
2017-12-16T05:48:00.540Z,4.00
2017-12-16T05:49:00.534Z,4.00
2017-12-16T05:50:00.528Z,4.00
2017-12-16T05:51:00.519Z,4.00
2017-12-16T05:52:00.512Z,4.00
2017-12-16T05:53:00.505Z,8.00
2017-12-16T05:54:00.501Z,4.00
2017-12-16T05:55:00.492Z,8.00
2017-12-16T05:56:00.487Z,8.00
2017-12-16T05:57:00.482Z,8.00
2017-12-16T05:58:00.473Z,8.00
2017-12-16T05:59:00.465Z,8.00
2017-12-16T06:00:00.458Z,8.00
2017-12-16T06:01:00.453Z,8.00
2017-12-16T06:02:00.448Z,8.00
2017-12-16T06:03:00.440Z,8.00
2017-12-16T06:04:00.432Z,8.00
2017-12-16T06:05:00.424Z,8.00
2017-12-16T06:06:00.421Z,8.00
2017-12-16T06:07:00.446Z,8.00
2017-12-16T06:08:00.456Z,8.00
2017-12-16T06:09:00.398Z,8.00
2017-12-16T06:10:00.392Z,8.00
2017-12-16T06:11:00.384Z,8.00
2017-12-16T06:12:00.378Z,8.00
2017-12-16T06:13:00.378Z,8.00
2017-12-16T06:14:00.365Z,8.00
2017-12-16T06:15:00.355Z,8.00
2017-12-16T06:16:00.353Z,8.00
2017-12-16T06:17:00.344Z,8.00
2017-12-16T06:18:00.336Z,8.00
2017-12-16T06:19:00.329Z,8.00
2017-12-16T06:20:00.321Z,8.00
2017-12-16T06:21:00.315Z,12.00
2017-12-16T06:22:00.306Z,8.00
2017-12-16T06:23:00.300Z,8.00
2017-12-16T06:24:00.293Z,8.00
2017-12-16T06:25:00.288Z,8.00
2017-12-16T06:26:00.277Z,8.00
2017-12-16T06:27:00.270Z,8.00
2017-12-16T06:28:00.267Z,8.00
2017-12-16T06:29:00.813Z,8.00
2017-12-16T06:30:00.257Z,8.00
2017-12-16T06:31:00.247Z,8.00
2017-12-16T06:32:00.236Z,8.00
2017-12-16T06:33:00.232Z,8.00
2017-12-16T06:34:00.224Z,8.00
2017-12-16T06:35:00.214Z,8.00
2017-12-16T06:36:00.208Z,8.00
2017-12-16T06:37:00.199Z,8.00
2017-12-16T06:38:00.197Z,8.00
2017-12-16T06:39:00.188Z,8.00
2017-12-16T06:40:00.180Z,8.00
2017-12-16T06:41:00.172Z,12.00
2017-12-16T06:42:00.163Z,12.00
2017-12-16T06:43:00.159Z,12.00
2017-12-16T06:44:00.152Z,12.00
2017-12-16T06:45:00.145Z,8.00
2017-12-16T06:46:00.138Z,8.00
2017-12-16T06:47:00.134Z,12.00
2017-12-16T06:48:00.122Z,12.00
2017-12-16T06:49:00.116Z,8.00
2017-12-16T06:50:00.115Z,12.00
2017-12-16T06:51:00.102Z,8.00
2017-12-16T06:52:00.094Z,12.00
2017-12-16T06:53:00.090Z,8.00
2017-12-16T06:54:00.080Z,8.00
2017-12-16T06:55:00.072Z,12.00
2017-12-16T06:56:00.066Z,12.00
2017-12-16T06:57:00.064Z,16.00
2017-12-16T06:58:00.053Z,16.00
2017-12-16T06:59:00.044Z,20.00
2017-12-16T07:00:00.040Z,24.00
2017-12-16T07:01:00.030Z,24.00
2017-12-16T07:02:00.024Z,28.00
2017-12-16T07:03:00.014Z,28.00
2017-12-16T07:04:00.011Z,32.00
2017-12-16T07:05:00.003Z,32.00
2017-12-16T07:05:59.992Z,32.00
2017-12-16T07:06:59.996Z,36.00
2017-12-16T07:07:59.980Z,40.00
2017-12-16T07:08:59.972Z,40.00
2017-12-16T07:09:59.969Z,40.00
2017-12-16T07:10:59.957Z,40.00
2017-12-16T07:11:59.950Z,48.00
2017-12-16T07:12:59.942Z,48.00
2017-12-16T07:13:59.937Z,48.00
2017-12-16T07:14:59.928Z,52.00
2017-12-16T07:15:59.921Z,56.00
2017-12-16T07:16:59.912Z,60.00
2017-12-16T07:17:59.907Z,60.00
2017-12-16T07:18:59.899Z,64.00
2017-12-16T07:19:59.890Z,68.00
2017-12-16T07:20:59.884Z,72.00
2017-12-16T07:21:59.876Z,76.00
2017-12-16T07:22:59.871Z,76.00
2017-12-16T07:23:59.861Z,84.00
2017-12-16T07:24:59.856Z,88.00
2017-12-16T07:25:59.854Z,88.00
2017-12-16T07:26:59.844Z,96.00
2017-12-16T07:27:59.833Z,96.00
2017-12-16T07:28:59.830Z,104.00
2017-12-16T07:29:59.825Z,104.00
2017-12-16T07:30:59.812Z,108.00
2017-12-16T07:31:59.806Z,108.00
2017-12-16T07:32:59.799Z,108.00
2017-12-16T07:33:59.790Z,116.00
2017-12-16T07:34:59.786Z,116.00
2017-12-16T07:35:59.777Z,116.00
2017-12-16T07:36:59.772Z,124.00
2017-12-16T07:37:59.761Z,124.00
2017-12-16T07:38:59.755Z,124.00
2017-12-16T07:39:59.746Z,124.00
2017-12-16T07:40:59.977Z,124.00
2017-12-16T07:41:59.733Z,128.00
2017-12-16T07:42:59.726Z,132.00
2017-12-16T07:43:59.718Z,140.00
2017-12-16T07:44:59.713Z,148.00
2017-12-16T07:45:59.707Z,156.00
2017-12-16T07:46:59.698Z,164.00
2017-12-16T07:47:59.692Z,168.00
2017-12-16T07:48:59.685Z,168.00
2017-12-16T07:49:59.679Z,168.00
2017-12-16T07:50:59.669Z,168.00
2017-12-16T07:51:59.664Z,172.00
2017-12-16T07:52:59.659Z,184.00
2017-12-16T07:53:59.651Z,204.00
2017-12-16T07:54:59.642Z,204.00
2017-12-16T07:55:59.635Z,208.00
2017-12-16T07:56:59.630Z,208.00
2017-12-16T07:57:59.623Z,204.00
2017-12-16T07:58:59.622Z,200.00
2017-12-16T07:59:59.608Z,204.00
2017-12-16T08:00:59.602Z,208.00
2017-12-16T08:01:59.596Z,212.00
2017-12-16T08:02:59.587Z,216.00
2017-12-16T08:03:59.588Z,224.00
2017-12-16T08:04:59.576Z,228.00
2017-12-16T08:05:59.567Z,240.00
2017-12-16T08:06:59.563Z,248.00
2017-12-16T08:07:59.564Z,256.00
2017-12-16T08:08:59.547Z,268.00
2017-12-16T08:09:59.541Z,280.00
2017-12-16T08:10:59.537Z,292.00
2017-12-16T08:11:59.528Z,300.00
2017-12-16T08:12:59.518Z,308.00
2017-12-16T08:13:59.514Z,316.00
2017-12-16T08:14:59.506Z,308.00
2017-12-16T08:15:59.499Z,308.00
2017-12-16T08:16:59.494Z,308.00
2017-12-16T08:17:59.488Z,308.00
2017-12-16T08:18:59.481Z,312.00
2017-12-16T08:19:59.473Z,316.00
2017-12-16T08:20:59.466Z,304.00
2017-12-16T08:21:59.461Z,296.00
2017-12-16T08:22:59.455Z,292.00
2017-12-16T08:23:59.446Z,288.00
2017-12-16T08:24:59.440Z,288.00
2017-12-16T08:25:59.435Z,288.00
2017-12-16T08:26:59.424Z,284.00
2017-12-16T08:27:59.418Z,280.00
2017-12-16T08:28:59.419Z,280.00
2017-12-16T08:29:59.407Z,276.00
2017-12-16T08:30:59.399Z,280.00
2017-12-16T08:31:59.393Z,280.00
2017-12-16T08:32:59.390Z,284.00
2017-12-16T08:33:59.400Z,288.00
2017-12-16T08:34:59.370Z,288.00
2017-12-16T08:35:59.368Z,288.00
2017-12-16T08:36:59.358Z,284.00
2017-12-16T08:37:59.350Z,288.00
2017-12-16T08:38:59.346Z,288.00
2017-12-16T08:39:59.340Z,288.00
2017-12-16T08:40:59.333Z,284.00
2017-12-16T08:41:59.329Z,296.00
2017-12-16T08:42:59.318Z,296.00
2017-12-16T08:43:59.311Z,296.00
2017-12-16T08:44:59.304Z,288.00
2017-12-16T08:45:59.296Z,276.00
2017-12-16T08:46:59.290Z,256.00
2017-12-16T08:47:59.287Z,248.00
2017-12-16T08:48:59.278Z,260.00
2017-12-16T08:49:59.324Z,292.00
2017-12-16T08:50:59.263Z,312.00
2017-12-16T08:51:59.257Z,320.00
2017-12-16T08:52:59.288Z,312.00
2017-12-16T08:53:59.244Z,320.00
2017-12-16T08:54:59.237Z,336.00
2017-12-16T08:55:59.229Z,352.00
2017-12-16T08:56:59.224Z,364.00
2017-12-16T08:57:59.217Z,380.00
2017-12-16T08:58:59.210Z,404.00
2017-12-16T08:59:59.206Z,428.00
2017-12-16T09:00:59.195Z,444.00
2017-12-16T09:01:59.191Z,468.00
2017-12-16T09:02:59.219Z,484.00
2017-12-16T09:03:59.181Z,508.00
2017-12-16T09:04:59.169Z,520.00
2017-12-16T09:05:59.167Z,536.00
2017-12-16T09:06:59.158Z,552.00
2017-12-16T09:07:59.157Z,568.00
2017-12-16T09:08:59.144Z,576.00
2017-12-16T09:09:59.137Z,580.00
2017-12-16T09:10:59.132Z,580.00
2017-12-16T09:11:59.125Z,580.00
2017-12-16T09:12:59.119Z,588.00
2017-12-16T09:13:59.113Z,608.00
2017-12-16T09:14:59.107Z,628.00
2017-12-16T09:15:59.101Z,656.00
2017-12-16T09:16:59.095Z,676.00
2017-12-16T09:17:59.088Z,696.00
2017-12-16T09:18:59.081Z,712.00
2017-12-16T09:19:59.073Z,712.00
2017-12-16T09:20:59.066Z,712.00
2017-12-16T09:21:59.062Z,704.00
2017-12-16T09:22:59.058Z,712.00
2017-12-16T09:23:59.052Z,732.00
2017-12-16T09:24:59.041Z,744.00
2017-12-16T09:25:59.037Z,764.00
2017-12-16T09:26:59.027Z,824.00
2017-12-16T09:27:59.026Z,852.00
2017-12-16T09:28:59.015Z,852.00
2017-12-16T09:29:59.011Z,844.00
2017-12-16T09:30:59.003Z,860.00
2017-12-16T09:31:58.997Z,912.00
2017-12-16T09:32:58.993Z,964.00
2017-12-16T09:33:58.984Z,980.00
2017-12-16T09:34:58.981Z,1012.00
2017-12-16T09:35:58.973Z,948.00
2017-12-16T09:36:58.972Z,936.00
2017-12-16T09:37:58.964Z,960.00
2017-12-16T09:38:58.959Z,940.00
2017-12-16T09:39:58.947Z,944.00
2017-12-16T09:40:58.941Z,928.00
2017-12-16T09:41:58.936Z,928.00
2017-12-16T09:42:58.925Z,960.00
2017-12-16T09:43:58.923Z,996.00
2017-12-16T09:44:58.921Z,1052.00
2017-12-16T09:45:58.910Z,1080.00
2017-12-16T09:46:58.903Z,1028.00
2017-12-16T09:47:58.895Z,1000.00
2017-12-16T09:48:58.892Z,1000.00
2017-12-16T09:49:58.884Z,1032.00
2017-12-16T09:50:58.877Z,1004.00
2017-12-16T09:51:58.872Z,972.00
2017-12-16T09:52:58.870Z,908.00
2017-12-16T09:53:58.861Z,900.00
2017-12-16T09:54:58.854Z,928.00
2017-12-16T09:55:58.846Z,956.00
2017-12-16T09:56:58.841Z,952.00
2017-12-16T09:57:58.835Z,952.00
2017-12-16T09:58:58.827Z,952.00
2017-12-16T09:59:58.824Z,1000.00
2017-12-16T10:00:58.820Z,1056.00
2017-12-16T10:01:59.935Z,1052.00
2017-12-16T10:02:59.892Z,996.00
2017-12-16T10:03:58.973Z,940.00
2017-12-16T10:04:59.071Z,912.00
2017-12-16T10:05:59.393Z,912.00
2017-12-16T10:06:59.859Z,928.00
2017-12-16T10:07:59.867Z,924.00
2017-12-16T10:08:59.346Z,924.00
2017-12-16T10:09:58.766Z,912.00
2017-12-16T10:10:58.756Z,896.00
2017-12-16T10:11:58.749Z,888.00
2017-12-16T10:12:58.743Z,884.00
2017-12-16T10:13:58.737Z,888.00
2017-12-16T10:14:58.732Z,908.00
2017-12-16T10:15:58.725Z,936.00
2017-12-16T10:16:58.719Z,952.00
2017-12-16T10:17:58.711Z,932.00
2017-12-16T10:18:58.714Z,904.00
2017-12-16T10:19:58.700Z,900.00
2017-12-16T10:20:58.696Z,920.00
2017-12-16T10:21:58.686Z,944.00
2017-12-16T10:22:58.686Z,952.00
2017-12-16T10:23:58.675Z,952.00
2017-12-16T10:24:58.729Z,952.00
2017-12-16T10:25:58.666Z,940.00
2017-12-16T10:26:58.658Z,944.00
2017-12-16T10:27:58.652Z,956.00
2017-12-16T10:28:58.643Z,936.00
2017-12-16T10:29:58.640Z,916.00
2017-12-16T10:30:58.634Z,936.00
2017-12-16T10:31:58.627Z,988.00
2017-12-16T10:32:58.622Z,1032.00
2017-12-16T10:33:58.615Z,1044.00
2017-12-16T10:34:58.612Z,1084.00
2017-12-16T10:35:58.604Z,1088.00
2017-12-16T10:36:58.598Z,1084.00
2017-12-16T10:37:58.591Z,1092.00
2017-12-16T10:38:58.585Z,1080.00
2017-12-16T10:39:58.580Z,1072.00
2017-12-16T10:40:58.576Z,1084.00
2017-12-16T10:41:58.570Z,1108.00
2017-12-16T10:42:58.565Z,1148.00
2017-12-16T10:43:58.559Z,1192.00
2017-12-16T10:44:58.552Z,1196.00
2017-12-16T10:45:58.545Z,1180.00
2017-12-16T10:46:58.539Z,1196.00
2017-12-16T10:47:58.533Z,1212.00
2017-12-16T10:48:58.530Z,1212.00
2017-12-16T10:49:58.521Z,1200.00
2017-12-16T10:50:58.520Z,1192.00
2017-12-16T10:51:58.511Z,1188.00
2017-12-16T10:52:58.522Z,1136.00
2017-12-16T10:53:58.504Z,1124.00
2017-12-16T10:54:58.507Z,1112.00
2017-12-16T10:55:58.488Z,1080.00
2017-12-16T10:56:58.485Z,1028.00
2017-12-16T10:57:58.478Z,988.00
2017-12-16T10:58:58.469Z,924.00
2017-12-16T10:59:58.466Z,832.00
2017-12-16T11:00:58.460Z,720.00
2017-12-16T11:01:58.454Z,612.00
2017-12-16T11:02:58.448Z,556.00
2017-12-16T11:03:58.442Z,632.00
2017-12-16T11:04:58.436Z,676.00
2017-12-16T11:05:58.430Z,700.00
2017-12-16T11:06:58.432Z,692.00
2017-12-16T11:07:58.420Z,692.00
2017-12-16T11:08:58.445Z,764.00
2017-12-16T11:09:58.472Z,888.00
2017-12-16T11:10:58.429Z,816.00
2017-12-16T11:11:58.395Z,772.00
2017-12-16T11:12:58.404Z,728.00
2017-12-16T11:13:58.386Z,700.00
2017-12-16T11:14:58.379Z,728.00
2017-12-16T11:15:58.373Z,808.00
2017-12-16T11:16:58.368Z,924.00
2017-12-16T11:17:58.364Z,840.00
2017-12-16T11:18:58.360Z,888.00
2017-12-16T11:19:58.360Z,916.00
2017-12-16T11:20:58.346Z,868.00
2017-12-16T11:21:58.342Z,864.00
2017-12-16T11:22:58.334Z,948.00
2017-12-16T11:23:58.332Z,992.00
2017-12-16T11:24:58.321Z,1000.00
2017-12-16T11:25:58.318Z,932.00
2017-12-16T11:26:58.312Z,780.00
2017-12-16T11:27:58.306Z,704.00
2017-12-16T11:28:58.392Z,656.00
2017-12-16T11:29:58.317Z,652.00
2017-12-16T11:30:58.287Z,672.00
2017-12-16T11:31:58.284Z,672.00
2017-12-16T11:32:58.278Z,580.00
2017-12-16T11:33:58.271Z,512.00
2017-12-16T11:34:58.265Z,440.00
2017-12-16T11:35:58.260Z,340.00
2017-12-16T11:36:58.255Z,284.00
2017-12-16T11:37:58.250Z,256.00
2017-12-16T11:38:58.251Z,240.00
2017-12-16T11:39:58.238Z,236.00
2017-12-16T11:40:58.238Z,248.00
2017-12-16T11:41:58.223Z,256.00
2017-12-16T11:42:58.220Z,272.00
2017-12-16T11:43:58.212Z,324.00
2017-12-16T11:44:58.208Z,384.00
2017-12-16T11:45:58.201Z,400.00
2017-12-16T11:46:58.198Z,408.00
2017-12-16T11:47:58.190Z,396.00
2017-12-16T11:48:58.184Z,476.00
2017-12-16T11:49:58.179Z,628.00
2017-12-16T11:50:58.171Z,704.00
2017-12-16T11:51:58.164Z,540.00
2017-12-16T11:52:58.194Z,500.00
2017-12-16T11:53:58.155Z,504.00
2017-12-16T11:54:58.166Z,488.00
2017-12-16T11:55:58.144Z,468.00
2017-12-16T11:56:58.134Z,440.00
2017-12-16T11:57:58.130Z,372.00
2017-12-16T11:58:58.124Z,392.00
2017-12-16T11:59:58.178Z,440.00
2017-12-16T12:00:58.117Z,568.00
2017-12-16T12:01:58.122Z,704.00
2017-12-16T12:02:58.116Z,788.00
2017-12-16T12:03:58.095Z,796.00
2017-12-16T12:04:58.086Z,816.00
2017-12-16T12:05:58.082Z,824.00
2017-12-16T12:06:58.080Z,940.00
2017-12-16T12:07:58.086Z,1056.00
2017-12-16T12:08:58.065Z,1228.00
2017-12-16T12:09:58.079Z,1252.00
2017-12-16T12:10:58.051Z,1236.00
2017-12-16T12:11:58.059Z,1248.00
2017-12-16T12:12:58.040Z,1284.00
2017-12-16T12:13:58.034Z,1400.00
2017-12-16T12:14:58.036Z,1568.00
2017-12-16T12:15:58.023Z,1556.00
2017-12-16T12:16:58.018Z,1608.00
2017-12-16T12:17:58.014Z,1576.00
2017-12-16T12:18:58.008Z,1584.00
2017-12-16T12:19:57.998Z,1552.00
2017-12-16T12:20:57.996Z,1424.00
2017-12-16T12:21:57.988Z,1316.00
2017-12-16T12:22:57.984Z,1280.00
2017-12-16T12:23:57.977Z,1276.00
2017-12-16T12:24:57.970Z,1316.00
2017-12-16T12:25:57.964Z,1248.00
2017-12-16T12:26:57.961Z,1188.00
2017-12-16T12:27:57.951Z,1160.00
2017-12-16T12:28:57.949Z,1236.00
2017-12-16T12:29:57.948Z,1444.00
2017-12-16T12:30:57.962Z,1524.00
2017-12-16T12:31:57.929Z,1152.00
2017-12-16T12:32:57.923Z,956.00
2017-12-16T12:33:57.919Z,968.00
2017-12-16T12:34:57.911Z,964.00
2017-12-16T12:35:57.904Z,864.00
2017-12-16T12:36:57.899Z,736.00
2017-12-16T12:37:57.922Z,724.00
2017-12-16T12:38:57.890Z,780.00
2017-12-16T12:39:57.882Z,884.00
2017-12-16T12:40:57.875Z,1012.00
2017-12-16T12:41:57.875Z,1060.00
2017-12-16T12:42:57.872Z,1144.00
2017-12-16T12:43:57.862Z,1004.00
2017-12-16T12:44:57.853Z,1132.00
2017-12-16T12:45:57.846Z,1132.00
2017-12-16T12:46:57.840Z,1184.00
2017-12-16T12:47:57.837Z,1144.00
2017-12-16T12:48:57.856Z,1140.00
2017-12-16T12:49:57.824Z,1152.00
2017-12-16T12:50:57.817Z,1060.00
2017-12-16T12:51:57.812Z,1120.00